sensor_id;sensor_type;location;lat;lon;timestamp;temperature;humidity
23411;DHT22;11878;51.774;7.220;2023-07-02T00:00:27;16.80;99.90
23411;DHT22;11878;51.774;7.220;2023-07-02T00:03:30;16.80;99.90
23411;DHT22;11878;51.774;7.220;2023-07-02T00:06:31;16.80;99.90
23411;DHT22;11878;51.774;7.220;2023-07-02T00:09:34;16.80;99.90
23411;DHT22;11878;51.774;7.220;2023-07-02T00:12:36;16.80;99.90
23411;DHT22;11878;51.774;7.220;2023-07-02T00:15:38;16.80;99.90
23411;DHT22;11878;51.774;7.220;2023-07-02T00:18:39;16.80;99.90
23411;DHT22;11878;51.774;7.220;2023-07-02T00:21:42;16.70;99.90
23411;DHT22;11878;51.774;7.220;2023-07-02T00:24:44;16.70;99.90
23411;DHT22;11878;51.774;7.220;2023-07-02T00:27:46;16.70;99.90
23411;DHT22;11878;51.774;7.220;2023-07-02T00:30:47;16.70;99.90
23411;DHT22;11878;51.774;7.220;2023-07-02T00:33:50;16.70;99.90
23411;DHT22;11878;51.774;7.220;2023-07-02T00:36:52;16.70;99.90
23411;DHT22;11878;51.774;7.220;2023-07-02T00:39:54;16.80;99.90
23411;DHT22;11878;51.774;7.220;2023-07-02T00:42:56;16.70;99.90
23411;DHT22;11878;51.774;7.220;2023-07-02T00:45:58;16.70;99.90
23411;DHT22;11878;51.774;7.220;2023-07-02T00:49:02;16.80;99.90
23411;DHT22;11878;51.774;7.220;2023-07-02T00:52:05;16.70;99.90
23411;DHT22;11878;51.774;7.220;2023-07-02T00:55:08;16.70;99.90
23411;DHT22;11878;51.774;7.220;2023-07-02T00:58:09;16.70;99.90
23411;DHT22;11878;51.774;7.220;2023-07-02T01:01:21;16.80;99.90
23411;DHT22;11878;51.774;7.220;2023-07-02T01:04:25;16.70;99.90
23411;DHT22;11878;51.774;7.220;2023-07-02T01:07:31;16.70;99.90
23411;DHT22;11878;51.774;7.220;2023-07-02T01:10:33;16.70;99.90
23411;DHT22;11878;51.774;7.220;2023-07-02T01:13:36;16.60;99.90
23411;DHT22;11878;51.774;7.220;2023-07-02T01:16:43;16.60;99.90
23411;DHT22;11878;51.774;7.220;2023-07-02T01:19:46;16.60;99.90
23411;DHT22;11878;51.774;7.220;2023-07-02T01:22:55;16.60;99.90
23411;DHT22;11878;51.774;7.220;2023-07-02T01:25:57;16.70;99.90
23411;DHT22;11878;51.774;7.220;2023-07-02T01:29:16;16.60;99.90
23411;DHT22;11878;51.774;7.220;2023-07-02T01:32:19;16.70;99.90
23411;DHT22;11878;51.774;7.220;2023-07-02T01:35:21;16.70;99.90
23411;DHT22;11878;51.774;7.220;2023-07-02T01:38:23;16.60;99.90
23411;DHT22;11878;51.774;7.220;2023-07-02T01:41:25;16.70;99.90
23411;DHT22;11878;51.774;7.220;2023-07-02T01:44:27;16.60;99.90
23411;DHT22;11878;51.774;7.220;2023-07-02T01:47:29;16.60;99.90
23411;DHT22;11878;51.774;7.220;2023-07-02T01:50:31;16.60;99.90
23411;DHT22;11878;51.774;7.220;2023-07-02T01:53:33;16.70;99.90
23411;DHT22;11878;51.774;7.220;2023-07-02T01:56:34;16.00;99.90
23411;DHT22;11878;51.774;7.220;2023-07-02T01:59:36;16.60;99.90
23411;DHT22;11878;51.774;7.220;2023-07-02T02:02:38;16.60;99.90
23411;DHT22;11878;51.774;7.220;2023-07-02T02:05:40;16.60;99.90
23411;DHT22;11878;51.774;7.220;2023-07-02T02:08:42;16.60;99.90
23411;DHT22;11878;51.774;7.220;2023-07-02T02:11:47;16.60;99.90
23411;DHT22;11878;51.774;7.220;2023-07-02T02:14:50;16.60;99.90
23411;DHT22;11878;51.774;7.220;2023-07-02T02:17:51;16.60;99.90
23411;DHT22;11878;51.774;7.220;2023-07-02T02:20:54;16.60;99.90
23411;DHT22;11878;51.774;7.220;2023-07-02T02:23:56;16.60;99.90
23411;DHT22;11878;51.774;7.220;2023-07-02T02:26:58;16.60;99.90
23411;DHT22;11878;51.774;7.220;2023-07-02T02:30:00;16.60;99.90
23411;DHT22;11878;51.774;7.220;2023-07-02T02:33:02;16.60;99.90
23411;DHT22;11878;51.774;7.220;2023-07-02T02:36:04;16.60;99.90
23411;DHT22;11878;51.774;7.220;2023-07-02T02:39:06;16.60;99.90
23411;DHT22;11878;51.774;7.220;2023-07-02T02:42:08;16.50;99.90
23411;DHT22;11878;51.774;7.220;2023-07-02T02:45:10;16.60;99.90
23411;DHT22;11878;51.774;7.220;2023-07-02T02:48:12;16.60;99.90
23411;DHT22;11878;51.774;7.220;2023-07-02T02:51:14;16.60;99.90
23411;DHT22;11878;51.774;7.220;2023-07-02T02:54:16;16.60;99.90
23411;DHT22;11878;51.774;7.220;2023-07-02T02:57:18;16.60;99.90
23411;DHT22;11878;51.774;7.220;2023-07-02T03:00:19;16.60;99.90
23411;DHT22;11878;51.774;7.220;2023-07-02T03:03:22;16.40;99.90
23411;DHT22;11878;51.774;7.220;2023-07-02T03:06:26;16.20;99.90
23411;DHT22;11878;51.774;7.220;2023-07-02T03:09:28;16.20;99.90
23411;DHT22;11878;51.774;7.220;2023-07-02T03:12:30;16.20;99.90
23411;DHT22;11878;51.774;7.220;2023-07-02T03:15:31;16.20;99.90
23411;DHT22;11878;51.774;7.220;2023-07-02T03:18:34;16.10;99.90
23411;DHT22;11878;51.774;7.220;2023-07-02T03:21:35;16.10;99.90
23411;DHT22;11878;51.774;7.220;2023-07-02T03:24:37;16.10;99.90
23411;DHT22;11878;51.774;7.220;2023-07-02T03:27:39;16.00;99.90
23411;DHT22;11878;51.774;7.220;2023-07-02T03:30:41;16.00;99.90
23411;DHT22;11878;51.774;7.220;2023-07-02T03:33:43;15.90;99.90
23411;DHT22;11878;51.774;7.220;2023-07-02T03:36:45;15.90;99.90
23411;DHT22;11878;51.774;7.220;2023-07-02T03:39:47;15.90;99.90
23411;DHT22;11878;51.774;7.220;2023-07-02T03:42:48;15.90;99.90
23411;DHT22;11878;51.774;7.220;2023-07-02T03:45:52;15.90;99.90
23411;DHT22;11878;51.774;7.220;2023-07-02T03:48:53;15.90;99.90
23411;DHT22;11878;51.774;7.220;2023-07-02T03:51:55;16.00;99.90
23411;DHT22;11878;51.774;7.220;2023-07-02T03:54:57;15.90;99.90
23411;DHT22;11878;51.774;7.220;2023-07-02T03:57:59;15.90;99.90
23411;DHT22;11878;51.774;7.220;2023-07-02T04:01:01;15.90;99.90
23411;DHT22;11878;51.774;7.220;2023-07-02T04:04:03;15.90;99.90
23411;DHT22;11878;51.774;7.220;2023-07-02T04:07:05;15.90;99.90
23411;DHT22;11878;51.774;7.220;2023-07-02T04:10:07;15.80;99.90
23411;DHT22;11878;51.774;7.220;2023-07-02T04:13:09;15.80;99.90
23411;DHT22;11878;51.774;7.220;2023-07-02T04:16:11;15.70;99.90
23411;DHT22;11878;51.774;7.220;2023-07-02T04:19:13;15.80;99.90
23411;DHT22;11878;51.774;7.220;2023-07-02T04:22:15;15.70;99.90
23411;DHT22;11878;51.774;7.220;2023-07-02T04:25:16;15.70;99.90
23411;DHT22;11878;51.774;7.220;2023-07-02T04:28:38;15.80;99.90
23411;DHT22;11878;51.774;7.220;2023-07-02T04:31:40;15.80;99.90
23411;DHT22;11878;51.774;7.220;2023-07-02T04:34:42;15.70;99.90
23411;DHT22;11878;51.774;7.220;2023-07-02T04:37:44;15.70;99.90
23411;DHT22;11878;51.774;7.220;2023-07-02T04:40:46;15.80;99.90
23411;DHT22;11878;51.774;7.220;2023-07-02T04:43:48;15.80;99.90
23411;DHT22;11878;51.774;7.220;2023-07-02T04:46:50;15.70;99.90
23411;DHT22;11878;51.774;7.220;2023-07-02T04:49:52;15.70;99.90
23411;DHT22;11878;51.774;7.220;2023-07-02T04:52:54;15.70;99.90
23411;DHT22;11878;51.774;7.220;2023-07-02T04:55:57;15.70;99.90
23411;DHT22;11878;51.774;7.220;2023-07-02T04:58:59;15.80;99.90
23411;DHT22;11878;51.774;7.220;2023-07-02T05:02:01;15.70;99.90
23411;DHT22;11878;51.774;7.220;2023-07-02T05:05:03;15.80;99.90
23411;DHT22;11878;51.774;7.220;2023-07-02T05:08:05;15.80;99.90
23411;DHT22;11878;51.774;7.220;2023-07-02T05:11:07;15.90;99.90
23411;DHT22;11878;51.774;7.220;2023-07-02T05:14:09;16.00;99.90
23411;DHT22;11878;51.774;7.220;2023-07-02T05:17:11;16.10;99.90
23411;DHT22;11878;51.774;7.220;2023-07-02T05:20:14;16.10;99.90
23411;DHT22;11878;51.774;7.220;2023-07-02T05:23:15;16.10;99.90
23411;DHT22;11878;51.774;7.220;2023-07-02T05:26:17;16.10;99.90
23411;DHT22;11878;51.774;7.220;2023-07-02T05:29:19;16.20;99.90
23411;DHT22;11878;51.774;7.220;2023-07-02T05:32:21;16.20;99.90
23411;DHT22;11878;51.774;7.220;2023-07-02T05:35:23;16.30;99.90
23411;DHT22;11878;51.774;7.220;2023-07-02T05:38:24;16.40;99.90
23411;DHT22;11878;51.774;7.220;2023-07-02T05:41:26;16.50;99.90
23411;DHT22;11878;51.774;7.220;2023-07-02T05:44:32;16.70;99.90
23411;DHT22;11878;51.774;7.220;2023-07-02T05:47:33;16.60;99.90
23411;DHT22;11878;51.774;7.220;2023-07-02T05:50:35;16.50;99.90
23411;DHT22;11878;51.774;7.220;2023-07-02T05:53:37;16.60;99.90
23411;DHT22;11878;51.774;7.220;2023-07-02T05:56:39;16.60;99.90
23411;DHT22;11878;51.774;7.220;2023-07-02T05:59:41;16.70;99.90
23411;DHT22;11878;51.774;7.220;2023-07-02T06:02:46;16.80;99.90
23411;DHT22;11878;51.774;7.220;2023-07-02T06:05:50;16.80;99.90
23411;DHT22;11878;51.774;7.220;2023-07-02T06:08:52;16.90;99.90
23411;DHT22;11878;51.774;7.220;2023-07-02T06:11:54;17.00;99.90
23411;DHT22;11878;51.774;7.220;2023-07-02T06:14:55;16.90;99.90
23411;DHT22;11878;51.774;7.220;2023-07-02T06:17:58;17.00;99.90
23411;DHT22;11878;51.774;7.220;2023-07-02T06:21:00;17.10;99.90
23411;DHT22;11878;51.774;7.220;2023-07-02T06:24:01;17.10;99.90
23411;DHT22;11878;51.774;7.220;2023-07-02T06:27:04;17.20;99.90
23411;DHT22;11878;51.774;7.220;2023-07-02T06:30:06;17.30;99.90
23411;DHT22;11878;51.774;7.220;2023-07-02T06:33:08;17.20;99.90
23411;DHT22;11878;51.774;7.220;2023-07-02T06:36:10;17.10;99.90
23411;DHT22;11878;51.774;7.220;2023-07-02T06:39:14;17.00;99.90
23411;DHT22;11878;51.774;7.220;2023-07-02T06:42:16;17.20;99.90
23411;DHT22;11878;51.774;7.220;2023-07-02T06:45:19;17.20;99.90
23411;DHT22;11878;51.774;7.220;2023-07-02T06:48:20;17.20;99.90
23411;DHT22;11878;51.774;7.220;2023-07-02T06:51:23;17.40;99.90
23411;DHT22;11878;51.774;7.220;2023-07-02T06:54:27;17.30;99.90
23411;DHT22;11878;51.774;7.220;2023-07-02T06:57:28;17.30;99.90
23411;DHT22;11878;51.774;7.220;2023-07-02T07:00:32;17.60;99.90
23411;DHT22;11878;51.774;7.220;2023-07-02T07:03:36;17.60;99.90
23411;DHT22;11878;51.774;7.220;2023-07-02T07:06:38;17.40;99.90
23411;DHT22;11878;51.774;7.220;2023-07-02T07:09:40;17.40;99.90
23411;DHT22;11878;51.774;7.220;2023-07-02T07:12:42;17.40;99.90
23411;DHT22;11878;51.774;7.220;2023-07-02T07:15:43;17.40;99.90
23411;DHT22;11878;51.774;7.220;2023-07-02T07:18:45;17.60;99.90
23411;DHT22;11878;51.774;7.220;2023-07-02T07:21:47;17.40;99.90
23411;DHT22;11878;51.774;7.220;2023-07-02T07:24:49;17.60;99.90
23411;DHT22;11878;51.774;7.220;2023-07-02T07:27:51;17.70;99.90
23411;DHT22;11878;51.774;7.220;2023-07-02T07:30:53;17.60;99.90
23411;DHT22;11878;51.774;7.220;2023-07-02T07:33:55;17.50;99.90
23411;DHT22;11878;51.774;7.220;2023-07-02T07:36:57;17.40;99.90
23411;DHT22;11878;51.774;7.220;2023-07-02T07:39:59;17.50;99.90
23411;DHT22;11878;51.774;7.220;2023-07-02T07:43:00;17.50;99.90
23411;DHT22;11878;51.774;7.220;2023-07-02T07:46:02;17.70;99.90
23411;DHT22;11878;51.774;7.220;2023-07-02T07:49:04;17.90;99.90
23411;DHT22;11878;51.774;7.220;2023-07-02T07:52:06;18.00;99.90
23411;DHT22;11878;51.774;7.220;2023-07-02T07:55:09;18.10;99.90
23411;DHT22;11878;51.774;7.220;2023-07-02T07:58:11;17.70;99.90
23411;DHT22;11878;51.774;7.220;2023-07-02T08:01:12;18.00;99.90
23411;DHT22;11878;51.774;7.220;2023-07-02T08:04:14;17.80;99.90
23411;DHT22;11878;51.774;7.220;2023-07-02T08:07:16;18.00;99.90
23411;DHT22;11878;51.774;7.220;2023-07-02T08:10:18;17.90;99.90
23411;DHT22;11878;51.774;7.220;2023-07-02T08:13:20;18.10;99.90
23411;DHT22;11878;51.774;7.220;2023-07-02T08:16:21;18.30;99.60
23411;DHT22;11878;51.774;7.220;2023-07-02T08:19:23;18.20;99.50
23411;DHT22;11878;51.774;7.220;2023-07-02T08:22:30;18.00;92.60
23411;DHT22;11878;51.774;7.220;2023-07-02T08:25:32;18.00;92.00
23411;DHT22;11878;51.774;7.220;2023-07-02T08:28:34;18.00;93.60
23411;DHT22;11878;51.774;7.220;2023-07-02T08:31:35;18.10;94.80
23411;DHT22;11878;51.774;7.220;2023-07-02T08:34:37;18.30;97.30
23411;DHT22;11878;51.774;7.220;2023-07-02T08:37:39;18.20;92.10
23411;DHT22;11878;51.774;7.220;2023-07-02T08:40:44;18.30;93.10
23411;DHT22;11878;51.774;7.220;2023-07-02T08:43:45;18.30;94.30
23411;DHT22;11878;51.774;7.220;2023-07-02T08:46:50;18.30;90.70
23411;DHT22;11878;51.774;7.220;2023-07-02T08:49:54;18.30;90.90
23411;DHT22;11878;51.774;7.220;2023-07-02T08:52:56;18.40;91.70
23411;DHT22;11878;51.774;7.220;2023-07-02T08:55:58;18.40;90.40
23411;DHT22;11878;51.774;7.220;2023-07-02T08:59:01;18.40;89.60
23411;DHT22;11878;51.774;7.220;2023-07-02T09:02:03;18.40;87.80
23411;DHT22;11878;51.774;7.220;2023-07-02T09:05:06;18.60;92.70
23411;DHT22;11878;51.774;7.220;2023-07-02T09:08:08;18.60;88.90
23411;DHT22;11878;51.774;7.220;2023-07-02T09:11:14;19.10;91.80
23411;DHT22;11878;51.774;7.220;2023-07-02T09:14:31;18.90;91.80
23411;DHT22;11878;51.774;7.220;2023-07-02T09:17:37;18.60;90.00
23411;DHT22;11878;51.774;7.220;2023-07-02T09:20:39;18.70;93.30
23411;DHT22;11878;51.774;7.220;2023-07-02T09:23:41;18.90;94.70
23411;DHT22;11878;51.774;7.220;2023-07-02T09:26:50;18.80;91.70
23411;DHT22;11878;51.774;7.220;2023-07-02T09:29:53;18.40;90.30
23411;DHT22;11878;51.774;7.220;2023-07-02T09:33:06;17.80;91.00
23411;DHT22;11878;51.774;7.220;2023-07-02T09:36:08;18.40;91.40
23411;DHT22;11878;51.774;7.220;2023-07-02T09:39:18;18.40;88.90
23411;DHT22;11878;51.774;7.220;2023-07-02T09:42:21;18.50;90.50
23411;DHT22;11878;51.774;7.220;2023-07-02T09:45:23;18.60;85.80
23411;DHT22;11878;51.774;7.220;2023-07-02T09:48:29;18.80;88.20
23411;DHT22;11878;51.774;7.220;2023-07-02T09:51:35;19.00;90.80
23411;DHT22;11878;51.774;7.220;2023-07-02T09:54:38;18.60;86.80
23411;DHT22;11878;51.774;7.220;2023-07-02T09:57:43;18.30;84.80
23411;DHT22;11878;51.774;7.220;2023-07-02T10:00:45;18.30;91.30
23411;DHT22;11878;51.774;7.220;2023-07-02T10:03:47;18.20;90.50
23411;DHT22;11878;51.774;7.220;2023-07-02T10:06:55;18.30;86.70
23411;DHT22;11878;51.774;7.220;2023-07-02T10:09:57;18.30;90.60
23411;DHT22;11878;51.774;7.220;2023-07-02T10:12:59;18.40;94.40
23411;DHT22;11878;51.774;7.220;2023-07-02T10:16:04;18.60;91.20
23411;DHT22;11878;51.774;7.220;2023-07-02T10:19:13;18.70;91.50
23411;DHT22;11878;51.774;7.220;2023-07-02T10:22:14;19.90;91.00
23411;DHT22;11878;51.774;7.220;2023-07-02T10:25:26;20.00;90.70
23411;DHT22;11878;51.774;7.220;2023-07-02T10:28:28;20.20;86.80
23411;DHT22;11878;51.774;7.220;2023-07-02T10:31:30;19.70;90.60
23411;DHT22;11878;51.774;7.220;2023-07-02T10:34:34;19.50;88.90
23411;DHT22;11878;51.774;7.220;2023-07-02T10:37:36;19.10;91.20
23411;DHT22;11878;51.774;7.220;2023-07-02T10:40:39;19.50;91.50
23411;DHT22;11878;51.774;7.220;2023-07-02T10:43:41;20.90;84.30
23411;DHT22;11878;51.774;7.220;2023-07-02T10:46:48;21.70;85.90
23411;DHT22;11878;51.774;7.220;2023-07-02T10:49:50;21.70;77.00
23411;DHT22;11878;51.774;7.220;2023-07-02T10:52:53;21.40;79.20
23411;DHT22;11878;51.774;7.220;2023-07-02T10:55:56;22.00;72.50
23411;DHT22;11878;51.774;7.220;2023-07-02T10:58:59;21.40;71.40
23411;DHT22;11878;51.774;7.220;2023-07-02T11:02:01;21.10;80.80
23411;DHT22;11878;51.774;7.220;2023-07-02T11:05:06;21.30;71.90
23411;DHT22;11878;51.774;7.220;2023-07-02T11:08:09;21.30;76.80
23411;DHT22;11878;51.774;7.220;2023-07-02T11:11:11;20.80;69.30
23411;DHT22;11878;51.774;7.220;2023-07-02T11:14:12;21.30;77.40
23411;DHT22;11878;51.774;7.220;2023-07-02T11:17:14;20.30;69.90
23411;DHT22;11878;51.774;7.220;2023-07-02T11:20:16;19.80;68.50
23411;DHT22;11878;51.774;7.220;2023-07-02T11:26:20;20.70;67.70
23411;DHT22;11878;51.774;7.220;2023-07-02T11:29:22;20.80;68.00
23411;DHT22;11878;51.774;7.220;2023-07-02T11:32:24;20.60;67.60
23411;DHT22;11878;51.774;7.220;2023-07-02T11:35:35;20.50;73.40
23411;DHT22;11878;51.774;7.220;2023-07-02T11:38:37;21.00;73.50
23411;DHT22;11878;51.774;7.220;2023-07-02T11:41:41;20.40;70.70
23411;DHT22;11878;51.774;7.220;2023-07-02T11:44:42;20.40;68.00
23411;DHT22;11878;51.774;7.220;2023-07-02T11:47:44;20.10;66.60
23411;DHT22;11878;51.774;7.220;2023-07-02T11:50:46;19.90;63.50
23411;DHT22;11878;51.774;7.220;2023-07-02T11:53:48;20.10;65.50
23411;DHT22;11878;51.774;7.220;2023-07-02T11:56:50;20.10;64.50
23411;DHT22;11878;51.774;7.220;2023-07-02T11:59:51;20.20;66.70
23411;DHT22;11878;51.774;7.220;2023-07-02T12:02:54;20.10;67.40
23411;DHT22;11878;51.774;7.220;2023-07-02T12:05:56;20.10;65.40
23411;DHT22;11878;51.774;7.220;2023-07-02T12:08:58;20.30;68.60
23411;DHT22;11878;51.774;7.220;2023-07-02T12:12:00;20.10;69.90
23411;DHT22;11878;51.774;7.220;2023-07-02T12:15:02;20.00;70.10
23411;DHT22;11878;51.774;7.220;2023-07-02T12:18:04;20.20;69.10
23411;DHT22;11878;51.774;7.220;2023-07-02T12:21:06;20.30;74.50
23411;DHT22;11878;51.774;7.220;2023-07-02T12:24:08;20.20;67.60
23411;DHT22;11878;51.774;7.220;2023-07-02T12:27:11;20.30;75.60
23411;DHT22;11878;51.774;7.220;2023-07-02T12:30:13;20.40;75.80
23411;DHT22;11878;51.774;7.220;2023-07-02T12:33:18;20.60;74.90
23411;DHT22;11878;51.774;7.220;2023-07-02T12:36:21;20.60;72.30
23411;DHT22;11878;51.774;7.220;2023-07-02T12:39:23;20.30;72.80
23411;DHT22;11878;51.774;7.220;2023-07-02T12:42:25;20.90;74.70
23411;DHT22;11878;51.774;7.220;2023-07-02T12:45:27;21.00;73.10
23411;DHT22;11878;51.774;7.220;2023-07-02T12:48:28;21.10;71.40
23411;DHT22;11878;51.774;7.220;2023-07-02T12:51:30;21.20;74.40
23411;DHT22;11878;51.774;7.220;2023-07-02T12:54:32;21.20;75.40
23411;DHT22;11878;51.774;7.220;2023-07-02T12:57:34;21.00;73.70
23411;DHT22;11878;51.774;7.220;2023-07-02T13:00:36;20.80;72.30
23411;DHT22;11878;51.774;7.220;2023-07-02T13:03:45;20.80;75.80
23411;DHT22;11878;51.774;7.220;2023-07-02T13:06:50;20.60;73.10
23411;DHT22;11878;51.774;7.220;2023-07-02T13:09:52;20.30;77.20
23411;DHT22;11878;51.774;7.220;2023-07-02T13:12:54;20.30;75.10
23411;DHT22;11878;51.774;7.220;2023-07-02T13:16:02;19.80;76.10
23411;DHT22;11878;51.774;7.220;2023-07-02T13:19:04;19.80;77.70
23411;DHT22;11878;51.774;7.220;2023-07-02T13:22:06;20.10;78.40
23411;DHT22;11878;51.774;7.220;2023-07-02T13:25:09;20.00;80.30
23411;DHT22;11878;51.774;7.220;2023-07-02T13:28:13;20.00;78.70
23411;DHT22;11878;51.774;7.220;2023-07-02T13:31:15;20.00;81.00
23411;DHT22;11878;51.774;7.220;2023-07-02T13:34:18;19.90;83.50
23411;DHT22;11878;51.774;7.220;2023-07-02T13:37:23;20.00;82.00
23411;DHT22;11878;51.774;7.220;2023-07-02T13:40:25;20.40;79.90
23411;DHT22;11878;51.774;7.220;2023-07-02T13:43:27;20.00;78.20
23411;DHT22;11878;51.774;7.220;2023-07-02T13:46:29;20.00;80.20
23411;DHT22;11878;51.774;7.220;2023-07-02T13:49:32;20.00;82.00
23411;DHT22;11878;51.774;7.220;2023-07-02T13:52:34;20.20;79.10
23411;DHT22;11878;51.774;7.220;2023-07-02T13:55:36;19.70;79.60
23411;DHT22;11878;51.774;7.220;2023-07-02T14:01:59;20.10;78.70
23411;DHT22;11878;51.774;7.220;2023-07-02T14:05:01;20.70;82.50
23411;DHT22;11878;51.774;7.220;2023-07-02T14:08:03;19.90;84.80
23411;DHT22;11878;51.774;7.220;2023-07-02T14:11:05;19.60;83.00
23411;DHT22;11878;51.774;7.220;2023-07-02T14:14:07;20.50;81.10
23411;DHT22;11878;51.774;7.220;2023-07-02T14:17:09;19.80;79.30
23411;DHT22;11878;51.774;7.220;2023-07-02T14:20:14;20.00;80.30
23411;DHT22;11878;51.774;7.220;2023-07-02T14:23:15;20.10;80.30
23411;DHT22;11878;51.774;7.220;2023-07-02T14:26:17;20.40;84.10
23411;DHT22;11878;51.774;7.220;2023-07-02T14:29:19;20.70;82.40
23411;DHT22;11878;51.774;7.220;2023-07-02T14:32:21;20.60;80.10
23411;DHT22;11878;51.774;7.220;2023-07-02T14:35:28;20.70;75.20
23411;DHT22;11878;51.774;7.220;2023-07-02T14:38:36;20.80;79.80
23411;DHT22;11878;51.774;7.220;2023-07-02T14:41:38;20.80;71.80
23411;DHT22;11878;51.774;7.220;2023-07-02T14:44:40;20.30;73.00
23411;DHT22;11878;51.774;7.220;2023-07-02T14:47:42;20.50;70.30
23411;DHT22;11878;51.774;7.220;2023-07-02T14:50:48;20.90;71.10
23411;DHT22;11878;51.774;7.220;2023-07-02T14:53:51;20.90;70.40
23411;DHT22;11878;51.774;7.220;2023-07-02T14:56:52;20.50;68.70
23411;DHT22;11878;51.774;7.220;2023-07-02T14:59:54;20.40;70.30
23411;DHT22;11878;51.774;7.220;2023-07-02T15:02:56;21.10;74.70
23411;DHT22;11878;51.774;7.220;2023-07-02T15:06:13;20.00;71.20
23411;DHT22;11878;51.774;7.220;2023-07-02T15:09:16;20.00;73.10
23411;DHT22;11878;51.774;7.220;2023-07-02T15:12:18;20.10;73.50
23411;DHT22;11878;51.774;7.220;2023-07-02T15:15:20;20.50;76.00
23411;DHT22;11878;51.774;7.220;2023-07-02T15:18:24;20.70;75.70
23411;DHT22;11878;51.774;7.220;2023-07-02T15:21:26;20.90;77.20
23411;DHT22;11878;51.774;7.220;2023-07-02T15:24:28;20.80;76.10
23411;DHT22;11878;51.774;7.220;2023-07-02T15:27:30;20.90;71.90
23411;DHT22;11878;51.774;7.220;2023-07-02T15:30:36;21.30;69.70
23411;DHT22;11878;51.774;7.220;2023-07-02T15:33:39;20.70;72.50
23411;DHT22;11878;51.774;7.220;2023-07-02T15:36:41;20.90;73.40
23411;DHT22;11878;51.774;7.220;2023-07-02T15:39:43;20.70;68.00
23411;DHT22;11878;51.774;7.220;2023-07-02T15:42:45;20.70;72.00
23411;DHT22;11878;51.774;7.220;2023-07-02T15:45:47;20.40;66.60
23411;DHT22;11878;51.774;7.220;2023-07-02T15:48:49;20.50;68.30
23411;DHT22;11878;51.774;7.220;2023-07-02T15:51:52;20.80;72.50
23411;DHT22;11878;51.774;7.220;2023-07-02T15:54:54;21.00;66.40
23411;DHT22;11878;51.774;7.220;2023-07-02T15:57:56;21.10;67.00
23411;DHT22;11878;51.774;7.220;2023-07-02T16:01:16;20.50;65.40
23411;DHT22;11878;51.774;7.220;2023-07-02T16:04:18;20.60;68.90
23411;DHT22;11878;51.774;7.220;2023-07-02T16:07:22;20.60;67.30
23411;DHT22;11878;51.774;7.220;2023-07-02T16:10:24;20.60;68.00
23411;DHT22;11878;51.774;7.220;2023-07-02T16:13:27;20.80;70.40
23411;DHT22;11878;51.774;7.220;2023-07-02T16:16:32;20.90;66.90
23411;DHT22;11878;51.774;7.220;2023-07-02T16:19:35;20.70;62.00
23411;DHT22;11878;51.774;7.220;2023-07-02T16:22:37;21.00;65.60
23411;DHT22;11878;51.774;7.220;2023-07-02T16:25:39;21.00;66.60
23411;DHT22;11878;51.774;7.220;2023-07-02T16:28:41;21.10;65.90
23411;DHT22;11878;51.774;7.220;2023-07-02T16:31:59;20.40;63.80
23411;DHT22;11878;51.774;7.220;2023-07-02T16:35:03;20.50;62.80
23411;DHT22;11878;51.774;7.220;2023-07-02T16:38:05;20.40;67.30
23411;DHT22;11878;51.774;7.220;2023-07-02T16:41:07;20.60;68.10
23411;DHT22;11878;51.774;7.220;2023-07-02T16:44:10;20.70;65.30
23411;DHT22;11878;51.774;7.220;2023-07-02T16:47:12;20.40;64.80
23411;DHT22;11878;51.774;7.220;2023-07-02T16:50:14;20.40;68.00
23411;DHT22;11878;51.774;7.220;2023-07-02T16:53:16;20.40;74.60
23411;DHT22;11878;51.774;7.220;2023-07-02T16:56:23;20.40;68.50
23411;DHT22;11878;51.774;7.220;2023-07-02T16:59:27;20.10;68.20
23411;DHT22;11878;51.774;7.220;2023-07-02T17:02:30;19.90;67.40
23411;DHT22;11878;51.774;7.220;2023-07-02T17:05:32;20.20;69.60
23411;DHT22;11878;51.774;7.220;2023-07-02T17:08:38;20.20;75.60
23411;DHT22;11878;51.774;7.220;2023-07-02T17:11:44;20.10;67.90
23411;DHT22;11878;51.774;7.220;2023-07-02T17:14:48;19.90;71.00
23411;DHT22;11878;51.774;7.220;2023-07-02T17:17:52;20.00;67.90
23411;DHT22;11878;51.774;7.220;2023-07-02T17:20:59;19.90;70.20
23411;DHT22;11878;51.774;7.220;2023-07-02T17:24:03;19.90;67.10
23411;DHT22;11878;51.774;7.220;2023-07-02T17:27:06;19.90;69.70
23411;DHT22;11878;51.774;7.220;2023-07-02T17:30:09;20.20;71.60
23411;DHT22;11878;51.774;7.220;2023-07-02T17:33:11;20.40;71.10
23411;DHT22;11878;51.774;7.220;2023-07-02T17:36:16;20.50;69.70
23411;DHT22;11878;51.774;7.220;2023-07-02T17:39:19;20.50;68.60
23411;DHT22;11878;51.774;7.220;2023-07-02T17:42:20;20.60;67.20
23411;DHT22;11878;51.774;7.220;2023-07-02T17:45:22;20.30;68.50
23411;DHT22;11878;51.774;7.220;2023-07-02T17:48:24;20.50;67.50
23411;DHT22;11878;51.774;7.220;2023-07-02T17:51:28;20.30;64.50
23411;DHT22;11878;51.774;7.220;2023-07-02T17:54:37;20.10;71.50
23411;DHT22;11878;51.774;7.220;2023-07-02T17:57:39;20.20;69.10
23411;DHT22;11878;51.774;7.220;2023-07-02T18:00:41;20.10;68.00
23411;DHT22;11878;51.774;7.220;2023-07-02T18:03:43;19.70;66.60
23411;DHT22;11878;51.774;7.220;2023-07-02T18:06:46;19.70;69.10
23411;DHT22;11878;51.774;7.220;2023-07-02T18:09:50;19.50;72.10
23411;DHT22;11878;51.774;7.220;2023-07-02T18:12:55;19.40;70.90
23411;DHT22;11878;51.774;7.220;2023-07-02T18:15:57;19.40;72.90
23411;DHT22;11878;51.774;7.220;2023-07-02T18:19:04;19.20;72.70
23411;DHT22;11878;51.774;7.220;2023-07-02T18:22:07;19.90;71.60
23411;DHT22;11878;51.774;7.220;2023-07-02T18:25:09;19.10;70.60
23411;DHT22;11878;51.774;7.220;2023-07-02T18:28:12;19.00;71.30
23411;DHT22;11878;51.774;7.220;2023-07-02T18:31:19;19.10;73.10
23411;DHT22;11878;51.774;7.220;2023-07-02T18:34:21;18.50;72.70
23411;DHT22;11878;51.774;7.220;2023-07-02T18:37:23;18.90;74.20
23411;DHT22;11878;51.774;7.220;2023-07-02T18:40:27;19.00;73.80
23411;DHT22;11878;51.774;7.220;2023-07-02T18:43:30;19.00;71.00
23411;DHT22;11878;51.774;7.220;2023-07-02T18:46:32;18.90;74.20
23411;DHT22;11878;51.774;7.220;2023-07-02T18:49:39;19.00;74.50
23411;DHT22;11878;51.774;7.220;2023-07-02T18:52:50;18.90;76.10
23411;DHT22;11878;51.774;7.220;2023-07-02T18:56:03;19.10;76.20
23411;DHT22;11878;51.774;7.220;2023-07-02T18:59:09;18.80;75.40
23411;DHT22;11878;51.774;7.220;2023-07-02T19:02:22;18.70;78.30
23411;DHT22;11878;51.774;7.220;2023-07-02T19:05:27;18.70;76.70
23411;DHT22;11878;51.774;7.220;2023-07-02T19:08:33;18.80;79.10
23411;DHT22;11878;51.774;7.220;2023-07-02T19:11:35;18.80;83.40
23411;DHT22;11878;51.774;7.220;2023-07-02T19:14:37;18.80;80.40
23411;DHT22;11878;51.774;7.220;2023-07-02T19:17:42;18.70;78.30
23411;DHT22;11878;51.774;7.220;2023-07-02T19:20:45;18.60;77.70